Terminal Aerodrome Forecast
Issued by NWS

Home | Current Version | Previous Version | Text Only | Print | Product List | Glossary On
Versions: 1 2 3 4 5 6 7 8 9 10 11 12 13 14 15 16 17 18 19 20 21 22 23 24
000
FTUS43 KMQT 221100
TAFSAW
TAF
KSAW 221132Z 2212/2312 16004KT P6SM OVC022
     FM221700 14006KT P6SM OVC025
     FM222200 11006KT P6SM SCT025 BKN035
     FM230300 11003KT P6SM BKN020
      AMD LTD TO CLD VIS AND WIND 2302/2310=

USA.gov is the U.S. government's official web portal to all federal, state and local government web resources and services.